sensor_id;sensor_type;location;lat;lon;timestamp;temperature;humidity
9167;DHT22;4618;48.818;9.088;2022-10-20T00:01:25;9.40;99.90
9167;DHT22;4618;48.818;9.088;2022-10-20T00:03:51;9.30;99.90
9167;DHT22;4618;48.818;9.088;2022-10-20T00:06:20;9.20;99.90
9167;DHT22;4618;48.818;9.088;2022-10-20T00:08:46;9.10;99.90
9167;DHT22;4618;48.818;9.088;2022-10-20T00:11:14;9.00;99.90
9167;DHT22;4618;48.818;9.088;2022-10-20T00:13:41;9.10;99.90
9167;DHT22;4618;48.818;9.088;2022-10-20T00:16:07;9.10;99.90
9167;DHT22;4618;48.818;9.088;2022-10-20T00:18:33;9.10;99.90
9167;DHT22;4618;48.818;9.088;2022-10-20T00:20:59;9.00;99.90
9167;DHT22;4618;48.818;9.088;2022-10-20T00:23:24;9.00;99.90
9167;DHT22;4618;48.818;9.088;2022-10-20T00:26:04;8.90;99.90
9167;DHT22;4618;48.818;9.088;2022-10-20T00:28:30;8.90;99.90
9167;DHT22;4618;48.818;9.088;2022-10-20T00:30:56;8.90;99.90
9167;DHT22;4618;48.818;9.088;2022-10-20T00:33:23;8.90;99.90
9167;DHT22;4618;48.818;9.088;2022-10-20T00:35:48;8.80;99.90
9167;DHT22;4618;48.818;9.088;2022-10-20T00:38:14;8.80;99.90
9167;DHT22;4618;48.818;9.088;2022-10-20T00:40:39;8.80;99.90
9167;DHT22;4618;48.818;9.088;2022-10-20T00:43:09;8.90;1.00
9167;DHT22;4618;48.818;9.088;2022-10-20T00:45:36;8.80;5.50
9167;DHT22;4618;48.818;9.088;2022-10-20T00:48:13;8.80;1.00
9167;DHT22;4618;48.818;9.088;2022-10-20T00:50:42;9.10;1.00
9167;DHT22;4618;48.818;9.088;2022-10-20T00:53:10;9.00;1.00
9167;DHT22;4618;48.818;9.088;2022-10-20T00:55:38;9.10;1.00
9167;DHT22;4618;48.818;9.088;2022-10-20T00:58:05;9.10;1.00
9167;DHT22;4618;48.818;9.088;2022-10-20T01:00:31;9.10;1.00
9167;DHT22;4618;48.818;9.088;2022-10-20T01:02:59;9.10;1.00
9167;DHT22;4618;48.818;9.088;2022-10-20T01:05:25;9.00;1.00
9167;DHT22;4618;48.818;9.088;2022-10-20T01:07:51;8.90;1.00
9167;DHT22;4618;48.818;9.088;2022-10-20T01:10:17;8.80;1.00
9167;DHT22;4618;48.818;9.088;2022-10-20T01:15:50;8.60;1.00
9167;DHT22;4618;48.818;9.088;2022-10-20T01:18:24;8.60;1.00
9167;DHT22;4618;48.818;9.088;2022-10-20T01:30:00;8.80;1.00
9167;DHT22;4618;48.818;9.088;2022-10-20T01:43:34;9.20;1.00
9167;DHT22;4618;48.818;9.088;2022-10-20T01:46:01;9.10;1.00
9167;DHT22;4618;48.818;9.088;2022-10-20T01:48:30;9.00;1.00
9167;DHT22;4618;48.818;9.088;2022-10-20T01:50:57;9.00;1.00
9167;DHT22;4618;48.818;9.088;2022-10-20T01:53:23;9.00;1.00
9167;DHT22;4618;48.818;9.088;2022-10-20T01:55:50;8.90;1.00
9167;DHT22;4618;48.818;9.088;2022-10-20T02:01:48;8.90;1.00
9167;DHT22;4618;48.818;9.088;2022-10-20T02:04:21;8.90;1.00
9167;DHT22;4618;48.818;9.088;2022-10-20T02:06:54;9.00;1.00
9167;DHT22;4618;48.818;9.088;2022-10-20T02:09:31;9.20;1.00
9167;DHT22;4618;48.818;9.088;2022-10-20T02:12:04;9.20;1.00
9167;DHT22;4618;48.818;9.088;2022-10-20T02:14:31;9.20;1.00
9167;DHT22;4618;48.818;9.088;2022-10-20T02:17:04;9.00;1.00
9167;DHT22;4618;48.818;9.088;2022-10-20T02:19:35;8.80;1.00
9167;DHT22;4618;48.818;9.088;2022-10-20T02:22:02;8.90;1.00
9167;DHT22;4618;48.818;9.088;2022-10-20T02:24:34;9.00;1.00
9167;DHT22;4618;48.818;9.088;2022-10-20T02:27:16;9.20;1.00
9167;DHT22;4618;48.818;9.088;2022-10-20T02:29:49;9.20;1.00
9167;DHT22;4618;48.818;9.088;2022-10-20T02:32:17;9.20;1.00
9167;DHT22;4618;48.818;9.088;2022-10-20T02:34:43;9.10;1.00
9167;DHT22;4618;48.818;9.088;2022-10-20T02:37:09;9.10;1.00
9167;DHT22;4618;48.818;9.088;2022-10-20T02:39:35;9.30;1.00
9167;DHT22;4618;48.818;9.088;2022-10-20T02:42:00;9.40;1.00
9167;DHT22;4618;48.818;9.088;2022-10-20T02:44:26;9.40;1.00
9167;DHT22;4618;48.818;9.088;2022-10-20T02:46:51;9.40;20.30
9167;DHT22;4618;48.818;9.088;2022-10-20T02:49:17;9.40;99.90
9167;DHT22;4618;48.818;9.088;2022-10-20T02:51:43;9.30;99.90
9167;DHT22;4618;48.818;9.088;2022-10-20T02:54:09;9.40;99.90
9167;DHT22;4618;48.818;9.088;2022-10-20T02:56:34;9.50;99.90
9167;DHT22;4618;48.818;9.088;2022-10-20T02:59:00;9.50;99.90
9167;DHT22;4618;48.818;9.088;2022-10-20T03:01:25;9.60;99.90
9167;DHT22;4618;48.818;9.088;2022-10-20T03:03:51;9.70;99.90
9167;DHT22;4618;48.818;9.088;2022-10-20T03:06:20;9.70;99.90
9167;DHT22;4618;48.818;9.088;2022-10-20T03:08:45;9.80;99.90
9167;DHT22;4618;48.818;9.088;2022-10-20T03:11:11;9.80;99.90
9167;DHT22;4618;48.818;9.088;2022-10-20T03:13:36;9.80;99.90
9167;DHT22;4618;48.818;9.088;2022-10-20T03:16:02;9.80;99.90
9167;DHT22;4618;48.818;9.088;2022-10-20T03:18:27;9.70;1.00
9167;DHT22;4618;48.818;9.088;2022-10-20T03:20:53;9.60;1.00
9167;DHT22;4618;48.818;9.088;2022-10-20T03:25:46;9.70;1.00
9167;DHT22;4618;48.818;9.088;2022-10-20T03:28:12;9.70;1.00
9167;DHT22;4618;48.818;9.088;2022-10-20T03:33:04;9.90;1.00
9167;DHT22;4618;48.818;9.088;2022-10-20T03:35:29;10.00;1.00
9167;DHT22;4618;48.818;9.088;2022-10-20T03:37:55;10.20;1.00
9167;DHT22;4618;48.818;9.088;2022-10-20T03:40:20;10.20;1.00
9167;DHT22;4618;48.818;9.088;2022-10-20T03:42:46;10.20;1.00
9167;DHT22;4618;48.818;9.088;2022-10-20T03:45:12;10.20;1.00
9167;DHT22;4618;48.818;9.088;2022-10-20T03:47:38;10.30;1.00
9167;DHT22;4618;48.818;9.088;2022-10-20T03:50:03;10.30;1.00
9167;DHT22;4618;48.818;9.088;2022-10-20T03:52:29;10.40;1.00
9167;DHT22;4618;48.818;9.088;2022-10-20T03:54:55;10.30;28.00
9167;DHT22;4618;48.818;9.088;2022-10-20T03:57:21;10.30;71.70
9167;DHT22;4618;48.818;9.088;2022-10-20T03:59:46;10.30;99.10
9167;DHT22;4618;48.818;9.088;2022-10-20T04:02:36;10.30;99.90
9167;DHT22;4618;48.818;9.088;2022-10-20T04:05:03;10.50;99.90
9167;DHT22;4618;48.818;9.088;2022-10-20T04:07:29;10.50;99.90
9167;DHT22;4618;48.818;9.088;2022-10-20T04:09:54;10.60;99.90
9167;DHT22;4618;48.818;9.088;2022-10-20T04:12:20;10.60;99.90
9167;DHT22;4618;48.818;9.088;2022-10-20T04:14:47;10.60;99.90
9167;DHT22;4618;48.818;9.088;2022-10-20T04:17:13;10.50;99.90
9167;DHT22;4618;48.818;9.088;2022-10-20T04:19:38;10.50;99.90
9167;DHT22;4618;48.818;9.088;2022-10-20T04:22:04;10.40;99.90
9167;DHT22;4618;48.818;9.088;2022-10-20T04:24:29;10.40;99.90
9167;DHT22;4618;48.818;9.088;2022-10-20T04:26:55;10.40;99.90
9167;DHT22;4618;48.818;9.088;2022-10-20T04:29:21;10.40;99.90
9167;DHT22;4618;48.818;9.088;2022-10-20T04:31:46;10.40;99.90
9167;DHT22;4618;48.818;9.088;2022-10-20T04:34:12;10.40;99.90
9167;DHT22;4618;48.818;9.088;2022-10-20T04:36:37;10.40;99.90
9167;DHT22;4618;48.818;9.088;2022-10-20T04:39:06;10.40;99.90
9167;DHT22;4618;48.818;9.088;2022-10-20T04:41:32;10.40;99.90
9167;DHT22;4618;48.818;9.088;2022-10-20T04:43:57;10.40;99.90
9167;DHT22;4618;48.818;9.088;2022-10-20T04:46:23;10.40;99.90
9167;DHT22;4618;48.818;9.088;2022-10-20T04:48:49;10.40;99.90
9167;DHT22;4618;48.818;9.088;2022-10-20T04:51:15;10.40;99.90
9167;DHT22;4618;48.818;9.088;2022-10-20T04:53:41;10.50;99.90
9167;DHT22;4618;48.818;9.088;2022-10-20T04:56:09;10.40;99.90
9167;DHT22;4618;48.818;9.088;2022-10-20T04:58:35;10.50;99.90
9167;DHT22;4618;48.818;9.088;2022-10-20T05:01:07;10.50;99.90
9167;DHT22;4618;48.818;9.088;2022-10-20T05:03:33;10.60;99.90
9167;DHT22;4618;48.818;9.088;2022-10-20T05:06:23;10.60;99.90
9167;DHT22;4618;48.818;9.088;2022-10-20T05:08:52;10.60;99.90
9167;DHT22;4618;48.818;9.088;2022-10-20T05:11:19;10.60;99.90
9167;DHT22;4618;48.818;9.088;2022-10-20T05:13:45;10.50;99.90
9167;DHT22;4618;48.818;9.088;2022-10-20T05:16:11;10.60;99.90
9167;DHT22;4618;48.818;9.088;2022-10-20T05:18:38;10.50;99.90
9167;DHT22;4618;48.818;9.088;2022-10-20T05:21:08;10.60;99.90
9167;DHT22;4618;48.818;9.088;2022-10-20T05:23:34;10.60;99.90
9167;DHT22;4618;48.818;9.088;2022-10-20T05:26:04;10.50;99.90
9167;DHT22;4618;48.818;9.088;2022-10-20T05:28:30;10.40;99.90
9167;DHT22;4618;48.818;9.088;2022-10-20T05:31:00;10.50;99.90
9167;DHT22;4618;48.818;9.088;2022-10-20T05:33:26;10.40;99.90
9167;DHT22;4618;48.818;9.088;2022-10-20T05:35:51;10.40;99.90
9167;DHT22;4618;48.818;9.088;2022-10-20T05:38:17;10.40;99.90
9167;DHT22;4618;48.818;9.088;2022-10-20T05:40:42;10.30;99.90
9167;DHT22;4618;48.818;9.088;2022-10-20T05:43:08;10.40;99.90
9167;DHT22;4618;48.818;9.088;2022-10-20T05:45:33;10.40;99.90
9167;DHT22;4618;48.818;9.088;2022-10-20T05:47:59;10.40;99.90
9167;DHT22;4618;48.818;9.088;2022-10-20T05:50:24;10.40;99.90
9167;DHT22;4618;48.818;9.088;2022-10-20T05:52:50;10.40;99.90
9167;DHT22;4618;48.818;9.088;2022-10-20T05:55:15;10.40;99.90
9167;DHT22;4618;48.818;9.088;2022-10-20T05:57:41;10.40;99.90
9167;DHT22;4618;48.818;9.088;2022-10-20T06:00:07;10.40;99.90
9167;DHT22;4618;48.818;9.088;2022-10-20T06:02:33;10.40;99.90
9167;DHT22;4618;48.818;9.088;2022-10-20T06:04:59;10.30;99.90
9167;DHT22;4618;48.818;9.088;2022-10-20T06:07:24;10.30;99.90
9167;DHT22;4618;48.818;9.088;2022-10-20T06:09:50;10.40;99.90
9167;DHT22;4618;48.818;9.088;2022-10-20T06:12:15;10.40;99.90
9167;DHT22;4618;48.818;9.088;2022-10-20T06:14:41;10.50;99.90
9167;DHT22;4618;48.818;9.088;2022-10-20T06:17:06;10.50;99.90
9167;DHT22;4618;48.818;9.088;2022-10-20T06:19:32;10.50;99.90
9167;DHT22;4618;48.818;9.088;2022-10-20T06:21:57;10.60;99.90
9167;DHT22;4618;48.818;9.088;2022-10-20T06:24:23;10.60;99.90
9167;DHT22;4618;48.818;9.088;2022-10-20T06:26:49;10.60;99.90
9167;DHT22;4618;48.818;9.088;2022-10-20T06:29:17;10.60;99.90
9167;DHT22;4618;48.818;9.088;2022-10-20T06:31:48;10.60;99.90
9167;DHT22;4618;48.818;9.088;2022-10-20T06:34:18;10.70;99.90
9167;DHT22;4618;48.818;9.088;2022-10-20T06:36:45;10.70;99.90
9167;DHT22;4618;48.818;9.088;2022-10-20T06:39:14;10.80;99.90
9167;DHT22;4618;48.818;9.088;2022-10-20T06:41:40;10.90;99.90
9167;DHT22;4618;48.818;9.088;2022-10-20T06:44:05;11.00;99.90
9167;DHT22;4618;48.818;9.088;2022-10-20T06:46:34;11.00;99.90
9167;DHT22;4618;48.818;9.088;2022-10-20T06:49:04;11.10;99.90
9167;DHT22;4618;48.818;9.088;2022-10-20T06:51:30;11.10;99.90
9167;DHT22;4618;48.818;9.088;2022-10-20T06:53:58;11.10;99.90
9167;DHT22;4618;48.818;9.088;2022-10-20T06:56:25;11.20;99.90
9167;DHT22;4618;48.818;9.088;2022-10-20T06:58:52;11.20;99.90
9167;DHT22;4618;48.818;9.088;2022-10-20T07:01:22;11.20;99.90
9167;DHT22;4618;48.818;9.088;2022-10-20T07:03:48;11.30;99.90
9167;DHT22;4618;48.818;9.088;2022-10-20T07:06:25;11.30;99.90
9167;DHT22;4618;48.818;9.088;2022-10-20T07:08:53;11.40;99.90
9167;DHT22;4618;48.818;9.088;2022-10-20T07:11:22;11.40;99.90
9167;DHT22;4618;48.818;9.088;2022-10-20T07:13:48;11.50;99.90
9167;DHT22;4618;48.818;9.088;2022-10-20T07:16:19;11.60;99.90
9167;DHT22;4618;48.818;9.088;2022-10-20T07:18:45;11.60;99.90
9167;DHT22;4618;48.818;9.088;2022-10-20T07:21:13;11.70;99.90
9167;DHT22;4618;48.818;9.088;2022-10-20T07:23:39;11.80;99.90
9167;DHT22;4618;48.818;9.088;2022-10-20T07:26:17;11.80;99.90
9167;DHT22;4618;48.818;9.088;2022-10-20T07:28:46;11.90;99.90
9167;DHT22;4618;48.818;9.088;2022-10-20T07:31:18;12.10;73.70
9167;DHT22;4618;48.818;9.088;2022-10-20T07:33:44;12.20;1.00
9167;DHT22;4618;48.818;9.088;2022-10-20T07:36:14;12.30;1.00
9167;DHT22;4618;48.818;9.088;2022-10-20T07:38:40;12.50;1.00
9167;DHT22;4618;48.818;9.088;2022-10-20T07:41:05;12.60;1.00
9167;DHT22;4618;48.818;9.088;2022-10-20T07:43:31;12.70;99.90
9167;DHT22;4618;48.818;9.088;2022-10-20T07:45:57;12.70;99.90
9167;DHT22;4618;48.818;9.088;2022-10-20T07:48:22;12.80;99.90
9167;DHT22;4618;48.818;9.088;2022-10-20T07:50:48;12.90;99.90
9167;DHT22;4618;48.818;9.088;2022-10-20T07:53:13;13.00;99.90
9167;DHT22;4618;48.818;9.088;2022-10-20T07:55:39;13.00;1.00
9167;DHT22;4618;48.818;9.088;2022-10-20T07:58:04;13.20;99.90
9167;DHT22;4618;48.818;9.088;2022-10-20T08:00:30;13.10;1.00
9167;DHT22;4618;48.818;9.088;2022-10-20T08:02:56;13.30;1.00
9167;DHT22;4618;48.818;9.088;2022-10-20T08:05:21;13.30;1.00
9167;DHT22;4618;48.818;9.088;2022-10-20T08:07:47;13.30;1.00
9167;DHT22;4618;48.818;9.088;2022-10-20T08:10:12;13.50;1.00
9167;DHT22;4618;48.818;9.088;2022-10-20T08:12:38;13.70;1.00
9167;DHT22;4618;48.818;9.088;2022-10-20T08:15:04;13.80;1.00
9167;DHT22;4618;48.818;9.088;2022-10-20T08:17:30;14.00;1.00
9167;DHT22;4618;48.818;9.088;2022-10-20T08:19:56;14.20;1.00
9167;DHT22;4618;48.818;9.088;2022-10-20T08:22:21;14.20;99.90
9167;DHT22;4618;48.818;9.088;2022-10-20T08:24:47;14.40;99.90
9167;DHT22;4618;48.818;9.088;2022-10-20T08:27:12;14.90;1.00
9167;DHT22;4618;48.818;9.088;2022-10-20T08:29:38;15.00;1.00
9167;DHT22;4618;48.818;9.088;2022-10-20T08:32:04;15.40;99.90
9167;DHT22;4618;48.818;9.088;2022-10-20T08:34:30;16.00;99.90
9167;DHT22;4618;48.818;9.088;2022-10-20T08:36:55;16.30;99.90
9167;DHT22;4618;48.818;9.088;2022-10-20T08:39:21;16.70;99.90
9167;DHT22;4618;48.818;9.088;2022-10-20T08:41:49;17.10;1.00
9167;DHT22;4618;48.818;9.088;2022-10-20T08:44:20;17.30;99.90
9167;DHT22;4618;48.818;9.088;2022-10-20T08:46:47;17.20;1.00
9167;DHT22;4618;48.818;9.088;2022-10-20T08:49:25;17.90;99.90
9167;DHT22;4618;48.818;9.088;2022-10-20T08:51:51;17.90;99.90
9167;DHT22;4618;48.818;9.088;2022-10-20T08:54:17;18.30;1.00
9167;DHT22;4618;48.818;9.088;2022-10-20T08:56:43;18.90;99.90
9167;DHT22;4618;48.818;9.088;2022-10-20T08:59:27;19.40;99.90
9167;DHT22;4618;48.818;9.088;2022-10-20T09:01:55;19.30;16.60
9167;DHT22;4618;48.818;9.088;2022-10-20T09:04:34;19.20;99.90
9167;DHT22;4618;48.818;9.088;2022-10-20T09:07:19;18.80;99.90
9167;DHT22;4618;48.818;9.088;2022-10-20T09:09:47;19.10;99.90
9167;DHT22;4618;48.818;9.088;2022-10-20T09:12:12;19.90;13.00
9167;DHT22;4618;48.818;9.088;2022-10-20T09:14:42;20.70;99.90
9167;DHT22;4618;48.818;9.088;2022-10-20T09:17:16;21.50;99.90
9167;DHT22;4618;48.818;9.088;2022-10-20T09:19:50;21.30;99.90
9167;DHT22;4618;48.818;9.088;2022-10-20T09:22:19;21.40;1.00
9167;DHT22;4618;48.818;9.088;2022-10-20T09:24:47;21.80;1.00
9167;DHT22;4618;48.818;9.088;2022-10-20T09:29:54;21.30;99.90
9167;DHT22;4618;48.818;9.088;2022-10-20T09:32:33;21.50;99.90
9167;DHT22;4618;48.818;9.088;2022-10-20T09:35:23;21.20;1.00
9167;DHT22;4618;48.818;9.088;2022-10-20T09:40:19;21.10;1.00
9167;DHT22;4618;48.818;9.088;2022-10-20T09:42:52;21.20;99.90
9167;DHT22;4618;48.818;9.088;2022-10-20T09:45:22;20.80;99.90
9167;DHT22;4618;48.818;9.088;2022-10-20T09:47:53;19.50;1.00
9167;DHT22;4618;48.818;9.088;2022-10-20T09:50:33;19.10;99.90
9167;DHT22;4618;48.818;9.088;2022-10-20T09:53:01;19.00;98.30
9167;DHT22;4618;48.818;9.088;2022-10-20T09:55:35;19.00;99.90
9167;DHT22;4618;48.818;9.088;2022-10-20T09:58:03;18.50;1.00
9167;DHT22;4618;48.818;9.088;2022-10-20T10:00:34;18.30;36.90
9167;DHT22;4618;48.818;9.088;2022-10-20T10:03:14;18.60;99.90
9167;DHT22;4618;48.818;9.088;2022-10-20T10:05:55;18.40;1.00
9167;DHT22;4618;48.818;9.088;2022-10-20T10:08:26;18.50;99.90
9167;DHT22;4618;48.818;9.088;2022-10-20T10:11:01;18.50;99.90
9167;DHT22;4618;48.818;9.088;2022-10-20T10:13:29;18.70;99.90
9167;DHT22;4618;48.818;9.088;2022-10-20T10:16:01;18.70;99.90
9167;DHT22;4618;48.818;9.088;2022-10-20T10:18:27;18.80;99.90
9167;DHT22;4618;48.818;9.088;2022-10-20T10:21:02;18.80;1.00
9167;DHT22;4618;48.818;9.088;2022-10-20T10:23:30;18.50;99.90
9167;DHT22;4618;48.818;9.088;2022-10-20T10:25:56;18.40;32.00
9167;DHT22;4618;48.818;9.088;2022-10-20T10:31:23;18.00;99.90
9167;DHT22;4618;48.818;9.088;2022-10-20T10:33:55;18.10;99.90
9167;DHT22;4618;48.818;9.088;2022-10-20T10:38:54;18.50;1.00
9167;DHT22;4618;48.818;9.088;2022-10-20T10:41:50;18.70;1.00
9167;DHT22;4618;48.818;9.088;2022-10-20T10:44:28;18.60;1.00
9167;DHT22;4618;48.818;9.088;2022-10-20T10:47:30;18.40;1.00
9167;DHT22;4618;48.818;9.088;2022-10-20T10:50:20;18.50;1.00
9167;DHT22;4618;48.818;9.088;2022-10-20T11:22:33;19.20;1.00
9167;DHT22;4618;48.818;9.088;2022-10-20T11:27:54;19.40;1.00
9167;DHT22;4618;48.818;9.088;2022-10-20T11:30:21;19.60;1.00
9167;DHT22;4618;48.818;9.088;2022-10-20T11:32:58;19.80;99.90
9167;DHT22;4618;48.818;9.088;2022-10-20T11:38:37;19.30;1.00
9167;DHT22;4618;48.818;9.088;2022-10-20T11:43:40;18.90;1.00
9167;DHT22;4618;48.818;9.088;2022-10-20T11:46:17;18.60;1.00
9167;DHT22;4618;48.818;9.088;2022-10-20T11:48:51;18.60;99.90
9167;DHT22;4618;48.818;9.088;2022-10-20T12:10:48;17.80;1.00
9167;DHT22;4618;48.818;9.088;2022-10-20T12:15:47;17.70;95.20
9167;DHT22;4618;48.818;9.088;2022-10-20T12:18:21;17.70;17.60
9167;DHT22;4618;48.818;9.088;2022-10-20T12:20:53;17.70;54.70
9167;DHT22;4618;48.818;9.088;2022-10-20T12:29:00;17.90;1.00
9167;DHT22;4618;48.818;9.088;2022-10-20T12:34:40;18.00;1.00
9167;DHT22;4618;48.818;9.088;2022-10-20T12:37:40;17.90;1.00
9167;DHT22;4618;48.818;9.088;2022-10-20T12:42:35;17.80;99.90
9167;DHT22;4618;48.818;9.088;2022-10-20T12:45:05;17.70;99.90
9167;DHT22;4618;48.818;9.088;2022-10-20T12:47:34;17.50;1.00
9167;DHT22;4618;48.818;9.088;2022-10-20T12:50:46;17.50;1.00
9167;DHT22;4618;48.818;9.088;2022-10-20T12:52:53;17.60;1.00
9167;DHT22;4618;48.818;9.088;2022-10-20T12:55:23;17.20;1.00
9167;DHT22;4618;48.818;9.088;2022-10-20T13:05:56;16.30;1.00
9167;DHT22;4618;48.818;9.088;2022-10-20T13:08:25;16.20;62.00
9167;DHT22;4618;48.818;9.088;2022-10-20T13:10:51;16.20;1.00
9167;DHT22;4618;48.818;9.088;2022-10-20T13:23:17;15.70;99.90
9167;DHT22;4618;48.818;9.088;2022-10-20T13:25:51;15.90;95.00
9167;DHT22;4618;48.818;9.088;2022-10-20T13:28:24;15.90;99.90
9167;DHT22;4618;48.818;9.088;2022-10-20T13:35:59;16.10;99.90
9167;DHT22;4618;48.818;9.088;2022-10-20T13:41:25;16.40;99.90
9167;DHT22;4618;48.818;9.088;2022-10-20T13:44:09;16.60;1.00
9167;DHT22;4618;48.818;9.088;2022-10-20T13:51:53;16.40;1.00
9167;DHT22;4618;48.818;9.088;2022-10-20T13:54:46;16.50;99.90
9167;DHT22;4618;48.818;9.088;2022-10-20T13:59:58;16.50;1.00
9167;DHT22;4618;48.818;9.088;2022-10-20T14:02:27;16.60;99.90
9167;DHT22;4618;48.818;9.088;2022-10-20T14:05:10;16.80;1.00
9167;DHT22;4618;48.818;9.088;2022-10-20T14:07:41;16.80;1.00
9167;DHT22;4618;48.818;9.088;2022-10-20T14:13:15;16.90;1.00
9167;DHT22;4618;48.818;9.088;2022-10-20T14:15:54;16.90;1.00
9167;DHT22;4618;48.818;9.088;2022-10-20T14:20:57;16.40;1.00
9167;DHT22;4618;48.818;9.088;2022-10-20T14:23:25;16.80;1.00
9167;DHT22;4618;48.818;9.088;2022-10-20T14:25:52;16.70;97.10
9167;DHT22;4618;48.818;9.088;2022-10-20T14:28:19;16.60;99.90
9167;DHT22;4618;48.818;9.088;2022-10-20T14:30:49;16.70;1.80
9167;DHT22;4618;48.818;9.088;2022-10-20T14:33:16;16.60;99.90
9167;DHT22;4618;48.818;9.088;2022-10-20T14:35:50;16.60;99.90
9167;DHT22;4618;48.818;9.088;2022-10-20T14:38:35;16.60;99.90
9167;DHT22;4618;48.818;9.088;2022-10-20T14:41:03;16.50;99.90
9167;DHT22;4618;48.818;9.088;2022-10-20T14:43:35;16.50;99.90
9167;DHT22;4618;48.818;9.088;2022-10-20T14:46:04;16.40;1.00
9167;DHT22;4618;48.818;9.088;2022-10-20T14:48:37;16.30;1.00
9167;DHT22;4618;48.818;9.088;2022-10-20T14:54:35;16.30;1.00
9167;DHT22;4618;48.818;9.088;2022-10-20T15:00:00;16.10;1.00
9167;DHT22;4618;48.818;9.088;2022-10-20T15:02:38;16.00;1.00
9167;DHT22;4618;48.818;9.088;2022-10-20T15:07:51;16.20;99.90
9167;DHT22;4618;48.818;9.088;2022-10-20T15:10:20;16.20;99.90
9167;DHT22;4618;48.818;9.088;2022-10-20T15:12:48;16.20;1.00
9167;DHT22;4618;48.818;9.088;2022-10-20T15:17:54;16.00;1.00
9167;DHT22;4618;48.818;9.088;2022-10-20T15:20:35;15.90;1.00
9167;DHT22;4618;48.818;9.088;2022-10-20T15:26:09;16.00;1.00
9167;DHT22;4618;48.818;9.088;2022-10-20T15:28:38;16.10;1.00
9167;DHT22;4618;48.818;9.088;2022-10-20T15:31:18;16.00;1.00
9167;DHT22;4618;48.818;9.088;2022-10-20T15:33:44;15.80;76.30
9167;DHT22;4618;48.818;9.088;2022-10-20T15:36:15;15.70;99.90
9167;DHT22;4618;48.818;9.088;2022-10-20T15:38:44;15.80;99.90
9167;DHT22;4618;48.818;9.088;2022-10-20T15:41:30;15.80;99.90
9167;DHT22;4618;48.818;9.088;2022-10-20T15:44:11;15.80;99.90
9167;DHT22;4618;48.818;9.088;2022-10-20T15:46:37;15.80;99.90
9167;DHT22;4618;48.818;9.088;2022-10-20T15:49:03;15.80;99.90
9167;DHT22;4618;48.818;9.088;2022-10-20T15:51:30;15.90;99.90
9167;DHT22;4618;48.818;9.088;2022-10-20T15:53:57;15.90;99.90
9167;DHT22;4618;48.818;9.088;2022-10-20T15:56:23;15.80;99.90
9167;DHT22;4618;48.818;9.088;2022-10-20T15:58:49;15.80;99.90
9167;DHT22;4618;48.818;9.088;2022-10-20T16:01:17;15.60;1.00
9167;DHT22;4618;48.818;9.088;2022-10-20T16:03:43;15.60;1.00
9167;DHT22;4618;48.818;9.088;2022-10-20T16:06:14;15.50;1.00
9167;DHT22;4618;48.818;9.088;2022-10-20T16:08:41;15.50;1.00
9167;DHT22;4618;48.818;9.088;2022-10-20T16:11:08;15.50;99.90
9167;DHT22;4618;48.818;9.088;2022-10-20T16:13:34;15.40;99.90
9167;DHT22;4618;48.818;9.088;2022-10-20T16:16:00;15.30;1.00
9167;DHT22;4618;48.818;9.088;2022-10-20T16:18:26;15.10;98.90
9167;DHT22;4618;48.818;9.088;2022-10-20T16:20:52;15.10;99.90
9167;DHT22;4618;48.818;9.088;2022-10-20T16:23:18;15.20;93.50
9167;DHT22;4618;48.818;9.088;2022-10-20T16:25:44;15.20;90.30
9167;DHT22;4618;48.818;9.088;2022-10-20T16:28:09;15.20;99.90
9167;DHT22;4618;48.818;9.088;2022-10-20T16:30:35;15.30;1.00
9167;DHT22;4618;48.818;9.088;2022-10-20T16:33:01;15.20;4.40
9167;DHT22;4618;48.818;9.088;2022-10-20T16:35:26;15.20;1.00
9167;DHT22;4618;48.818;9.088;2022-10-20T16:37:52;15.10;25.50
9167;DHT22;4618;48.818;9.088;2022-10-20T16:40:17;15.10;99.90
9167;DHT22;4618;48.818;9.088;2022-10-20T16:42:44;15.00;99.90
9167;DHT22;4618;48.818;9.088;2022-10-20T16:45:09;15.00;1.00
9167;DHT22;4618;48.818;9.088;2022-10-20T16:47:35;15.00;1.00
9167;DHT22;4618;48.818;9.088;2022-10-20T16:50:00;15.00;1.00
9167;DHT22;4618;48.818;9.088;2022-10-20T16:52:26;15.00;1.00
9167;DHT22;4618;48.818;9.088;2022-10-20T16:54:52;15.00;1.00
9167;DHT22;4618;48.818;9.088;2022-10-20T16:57:17;15.00;1.00
9167;DHT22;4618;48.818;9.088;2022-10-20T16:59:44;15.00;1.00
9167;DHT22;4618;48.818;9.088;2022-10-20T17:02:15;14.90;5.40
9167;DHT22;4618;48.818;9.088;2022-10-20T17:04:42;14.80;41.90
9167;DHT22;4618;48.818;9.088;2022-10-20T17:07:09;14.80;1.00
9167;DHT22;4618;48.818;9.088;2022-10-20T17:09:34;14.80;1.00
9167;DHT22;4618;48.818;9.088;2022-10-20T17:12:00;14.80;1.00
9167;DHT22;4618;48.818;9.088;2022-10-20T17:14:26;14.80;1.00
9167;DHT22;4618;48.818;9.088;2022-10-20T17:16:51;14.80;1.00
9167;DHT22;4618;48.818;9.088;2022-10-20T17:19:17;14.80;1.00
9167;DHT22;4618;48.818;9.088;2022-10-20T17:21:42;14.80;1.00
9167;DHT22;4618;48.818;9.088;2022-10-20T17:24:09;14.80;1.00
9167;DHT22;4618;48.818;9.088;2022-10-20T17:26:35;14.80;1.00
9167;DHT22;4618;48.818;9.088;2022-10-20T17:29:01;14.90;1.00
9167;DHT22;4618;48.818;9.088;2022-10-20T17:31:27;14.80;1.00
9167;DHT22;4618;48.818;9.088;2022-10-20T17:33:55;14.90;1.00
9167;DHT22;4618;48.818;9.088;2022-10-20T17:36:22;15.00;1.00
9167;DHT22;4618;48.818;9.088;2022-10-20T17:38:53;15.00;1.00
9167;DHT22;4618;48.818;9.088;2022-10-20T17:41:20;15.00;99.90
9167;DHT22;4618;48.818;9.088;2022-10-20T17:43:46;14.90;1.00
9167;DHT22;4618;48.818;9.088;2022-10-20T17:46:15;14.80;1.00
9167;DHT22;4618;48.818;9.088;2022-10-20T17:48:41;14.70;1.00
9167;DHT22;4618;48.818;9.088;2022-10-20T17:51:13;14.60;65.00
9167;DHT22;4618;48.818;9.088;2022-10-20T17:53:42;14.80;99.90
9167;DHT22;4618;48.818;9.088;2022-10-20T17:56:15;14.80;1.00
9167;DHT22;4618;48.818;9.088;2022-10-20T17:58:42;14.70;1.00
9167;DHT22;4618;48.818;9.088;2022-10-20T18:01:16;14.70;1.00
9167;DHT22;4618;48.818;9.088;2022-10-20T18:03:45;14.70;1.00
9167;DHT22;4618;48.818;9.088;2022-10-20T18:06:19;14.70;1.00
9167;DHT22;4618;48.818;9.088;2022-10-20T18:08:46;14.70;1.00
9167;DHT22;4618;48.818;9.088;2022-10-20T18:11:21;14.50;1.00
9167;DHT22;4618;48.818;9.088;2022-10-20T18:13:46;14.50;1.00
9167;DHT22;4618;48.818;9.088;2022-10-20T18:16:14;14.50;1.00
9167;DHT22;4618;48.818;9.088;2022-10-20T18:18:40;14.50;29.90
9167;DHT22;4618;48.818;9.088;2022-10-20T18:21:07;14.60;28.40
9167;DHT22;4618;48.818;9.088;2022-10-20T18:23:34;14.60;3.40
9167;DHT22;4618;48.818;9.088;2022-10-20T18:26:10;14.60;1.00
9167;DHT22;4618;48.818;9.088;2022-10-20T18:28:36;14.50;12.70
9167;DHT22;4618;48.818;9.088;2022-10-20T18:31:07;14.50;99.90
9167;DHT22;4618;48.818;9.088;2022-10-20T18:33:33;14.50;99.90
9167;DHT22;4618;48.818;9.088;2022-10-20T18:36:07;14.50;99.90
9167;DHT22;4618;48.818;9.088;2022-10-20T18:38:37;14.40;99.90
9167;DHT22;4618;48.818;9.088;2022-10-20T18:41:05;14.40;99.90
9167;DHT22;4618;48.818;9.088;2022-10-20T18:43:31;14.40;99.90
9167;DHT22;4618;48.818;9.088;2022-10-20T18:45:58;14.50;99.90
9167;DHT22;4618;48.818;9.088;2022-10-20T18:48:24;14.40;99.90
9167;DHT22;4618;48.818;9.088;2022-10-20T18:50:59;14.40;99.90
9167;DHT22;4618;48.818;9.088;2022-10-20T18:53:27;14.40;99.90
9167;DHT22;4618;48.818;9.088;2022-10-20T18:56:05;14.30;99.90
9167;DHT22;4618;48.818;9.088;2022-10-20T18:58:36;14.30;99.90
9167;DHT22;4618;48.818;9.088;2022-10-20T19:01:08;14.30;99.90
9167;DHT22;4618;48.818;9.088;2022-10-20T19:03:35;14.30;99.90
9167;DHT22;4618;48.818;9.088;2022-10-20T19:06:03;14.30;99.90
9167;DHT22;4618;48.818;9.088;2022-10-20T19:08:29;14.20;99.90
9167;DHT22;4618;48.818;9.088;2022-10-20T19:10:55;14.20;99.90